createdAt,value
2022-08-22T00:00:58.440Z,99750.22
2022-08-22T00:02:53.437Z,99745.66
2022-08-22T00:02:59.626Z,99747.41
2022-08-22T00:03:00.572Z,99745.22
2022-08-22T00:03:12.559Z,99767.66
2022-08-22T00:03:56.284Z,99747.00
2022-08-22T00:06:47.963Z,99749.00
2022-08-22T00:09:33.760Z,99749.13
2022-08-22T00:12:23.782Z,99757.00
2022-08-22T00:15:16.774Z,99738.34
2022-08-22T00:18:13.010Z,99744.53
2022-08-22T00:21:30.670Z,99749.94
2022-08-22T00:24:41.654Z,99742.41
2022-08-22T00:27:23.545Z,99749.31
2022-08-22T00:30:05.675Z,99757.91
2022-08-22T00:32:37.396Z,99751.06
2022-08-22T00:35:35.147Z,99749.41
2022-08-22T00:38:31.053Z,99747.03
2022-08-22T00:41:14.113Z,99748.75
2022-08-22T00:43:53.480Z,99747.91
2022-08-22T00:46:55.122Z,99737.03
2022-08-22T00:50:14.942Z,99740.63
2022-08-22T00:53:29.450Z,99737.47
2022-08-22T00:56:17.324Z,99747.88
2022-08-22T00:59:23.444Z,99738.66
2022-08-22T01:02:29.619Z,99743.22
2022-08-22T01:05:24.338Z,99729.78
2022-08-22T01:08:16.357Z,99730.66
2022-08-22T01:11:04.217Z,99728.16
2022-08-22T01:14:04.767Z,99729.19
2022-08-22T01:17:00.541Z,99730.41
2022-08-22T01:20:19.794Z,99723.66
2022-08-22T01:23:20.807Z,99714.59
2022-08-22T01:26:45.220Z,99716.56
2022-08-22T01:29:47.544Z,99718.50
2022-08-22T01:32:47.759Z,99716.09
2022-08-22T01:35:53.687Z,99723.09
2022-08-22T01:38:49.156Z,99731.81
2022-08-22T01:41:42.349Z,99731.06
2022-08-22T01:44:27.151Z,99726.06
2022-08-22T01:47:15.412Z,99712.41
2022-08-22T01:49:54.224Z,99720.97
2022-08-22T01:52:45.052Z,99712.47
2022-08-22T01:55:38.800Z,99715.84
2022-08-22T01:58:24.004Z,99720.91
2022-08-22T02:01:02.780Z,99719.97
2022-08-22T02:04:07.383Z,99719.09
2022-08-22T02:07:14.167Z,99720.81
2022-08-22T02:11:04.414Z,99711.38
2022-08-22T02:13:58.787Z,99711.47
2022-08-22T02:16:38.973Z,99705.50
2022-08-22T02:19:34.249Z,99708.97
2022-08-22T02:22:31.126Z,99712.47
2022-08-22T02:25:20.898Z,99703.34
2022-08-22T02:28:40.489Z,99706.78
2022-08-22T02:31:53.532Z,99707.72
2022-08-22T02:35:01.273Z,99703.34
2022-08-22T02:38:07.626Z,99700.72
2022-08-22T02:41:02.044Z,99698.97
2022-08-22T02:44:04.874Z,99695.50
2022-08-22T02:46:54.602Z,99686.06
2022-08-22T02:49:50.270Z,99703.88
2022-08-22T02:52:27.989Z,99693.56
2022-08-22T02:55:29.725Z,99696.06
2022-08-22T02:58:30.429Z,99690.94
2022-08-22T03:01:03.252Z,99689.97
2022-08-22T03:03:39.847Z,99683.84
2022-08-22T03:06:43.534Z,99685.47
2022-08-22T03:09:16.155Z,99684.56
2022-08-22T03:12:06.890Z,99686.22
2022-08-22T03:15:09.994Z,99680.19
2022-08-22T03:17:58.437Z,99669.94
2022-08-22T03:21:15.133Z,99673.22
2022-08-22T03:24:16.394Z,99673.97
2022-08-22T03:27:15.167Z,99675.59
2022-08-22T03:30:34.971Z,99678.97
2022-08-22T03:33:18.338Z,99677.09
2022-08-22T03:35:45.177Z,99680.41
2022-08-22T03:38:32.733Z,99677.72
2022-08-22T03:41:44.906Z,99676.78
2022-08-22T03:44:55.274Z,99671.56
2022-08-22T03:47:55.965Z,99674.97
2022-08-22T03:50:50.640Z,99665.47
2022-08-22T03:53:43.777Z,99661.09
2022-08-22T03:56:28.529Z,99659.41
2022-08-22T03:59:42.753Z,99655.31
2022-08-22T04:02:50.363Z,99656.53
2022-08-22T04:05:52.817Z,99653.44
2022-08-22T04:08:43.989Z,99651.81
2022-08-22T04:11:49.620Z,99663.84
2022-08-22T04:14:59.556Z,99656.31
2022-08-22T04:17:26.229Z,99659.84
2022-08-22T04:20:32.489Z,99665.84
2022-08-22T04:23:20.663Z,99666.03
2022-08-22T04:25:55.201Z,99667.06
2022-08-22T04:28:57.105Z,99667.31
2022-08-22T04:31:36.631Z,99658.94
2022-08-22T04:34:20.850Z,99656.59
2022-08-22T04:36:58.521Z,99662.63
2022-08-22T04:39:48.195Z,99667.03
2022-08-22T04:42:36.319Z,99663.69
2022-08-22T04:45:19.159Z,99671.56
2022-08-22T04:48:00.167Z,99670.81
2022-08-22T04:50:54.961Z,99669.19
2022-08-22T04:53:59.569Z,99669.34
2022-08-22T04:57:24.882Z,99672.03
2022-08-22T04:59:58.917Z,99678.94
2022-08-22T05:02:27.836Z,99680.59
2022-08-22T05:05:05.562Z,99687.44
2022-08-22T05:07:49.275Z,99686.44
2022-08-22T05:10:34.203Z,99681.22
2022-08-22T05:13:23.944Z,99686.16
2022-08-22T05:15:59.134Z,99678.41
2022-08-22T05:18:29.933Z,99683.34
2022-08-22T05:21:03.049Z,99689.91
2022-08-22T05:23:43.288Z,99686.34
2022-08-22T05:26:13.042Z,99680.16
2022-08-22T05:28:53.568Z,99682.47
2022-08-22T05:31:41.948Z,99687.31
2022-08-22T05:34:17.196Z,99694.66
2022-08-22T05:37:04.533Z,99689.25
2022-08-22T05:39:38.572Z,99697.34
2022-08-22T05:42:13.418Z,99708.03
2022-08-22T05:44:40.228Z,99708.53
2022-08-22T05:47:27.371Z,99704.59
2022-08-22T05:50:30.692Z,99698.13
2022-08-22T05:53:28.730Z,99698.59
2022-08-22T05:56:05.996Z,99708.38
2022-08-22T05:58:50.969Z,99706.22
2022-08-22T06:01:29.112Z,99708.28
2022-08-22T06:04:27.115Z,99711.25
2022-08-22T06:07:16.387Z,99718.59
2022-08-22T06:10:02.299Z,99710.28
2022-08-22T06:12:37.243Z,99715.06
2022-08-22T06:15:33.372Z,99715.44
2022-08-22T06:18:10.362Z,99707.25
2022-08-22T06:20:52.658Z,99705.06
2022-08-22T06:23:33.020Z,99696.28
2022-08-22T06:26:01.857Z,99696.69
2022-08-22T06:28:38.014Z,99698.91
2022-08-22T06:31:47.061Z,99703.81
2022-08-22T06:34:20.354Z,99705.88
2022-08-22T06:36:51.237Z,99709.84
2022-08-22T06:39:36.597Z,99706.00
2022-08-22T06:42:22.967Z,99713.94
2022-08-22T06:45:00.923Z,99706.38
2022-08-22T06:47:39.336Z,99707.75
2022-08-22T06:50:14.697Z,99714.06
2022-08-22T06:53:07.393Z,99710.47
2022-08-22T06:55:39.022Z,99701.44
2022-08-22T06:58:20.564Z,99698.75
2022-08-22T07:00:58.869Z,99702.44
2022-08-22T07:03:53.899Z,99687.78
2022-08-22T07:06:50.040Z,99694.56
2022-08-22T07:09:28.107Z,99702.09
2022-08-22T07:11:59.819Z,99699.38
2022-08-22T07:14:33.141Z,99704.47
2022-08-22T07:17:08.226Z,99691.06
2022-08-22T07:19:41.420Z,99699.47
2022-08-22T07:22:23.523Z,99696.56
2022-08-22T07:25:09.213Z,99703.53
2022-08-22T07:28:51.226Z,99695.81
2022-08-22T07:31:57.996Z,99706.25
2022-08-22T07:34:44.634Z,99709.66
2022-08-22T07:37:48.170Z,99709.78
2022-08-22T07:40:45.057Z,99708.63
2022-08-22T07:43:35.355Z,99709.13
2022-08-22T07:46:21.367Z,99708.06
2022-08-22T07:49:09.072Z,99707.66
2022-08-22T07:51:50.667Z,99711.56
2022-08-22T07:54:28.781Z,99718.81
2022-08-22T07:57:07.884Z,99713.00
2022-08-22T07:59:39.790Z,99717.47
2022-08-22T08:02:13.831Z,99709.34
2022-08-22T08:04:42.390Z,99710.47
2022-08-22T08:07:14.871Z,99720.22
2022-08-22T08:09:51.164Z,99716.91
2022-08-22T08:12:32.773Z,99717.19
2022-08-22T08:15:04.042Z,99715.53
2022-08-22T08:17:35.332Z,99708.66
2022-08-22T08:20:24.351Z,99709.03
2022-08-22T08:22:54.009Z,99707.88
2022-08-22T08:25:28.925Z,99703.53
2022-08-22T08:28:18.234Z,99703.53
2022-08-22T08:31:02.122Z,99702.69
2022-08-22T08:33:32.056Z,99705.97
2022-08-22T08:36:06.799Z,99702.34
2022-08-22T08:39:14.166Z,99701.22
2022-08-22T08:42:18.284Z,99694.97
2022-08-22T08:45:09.471Z,99686.06
2022-08-22T08:47:42.740Z,99689.28
2022-08-22T08:50:45.525Z,99694.50
2022-08-22T08:53:52.769Z,99689.50
2022-08-22T08:56:36.547Z,99686.16
2022-08-22T08:59:10.096Z,99694.31
2022-08-22T09:02:05.976Z,99686.41
2022-08-22T09:05:20.809Z,99683.50
2022-08-22T09:08:22.166Z,99688.19
2022-08-22T09:11:30.875Z,99685.72
2022-08-22T09:15:01.504Z,99687.69
2022-08-22T09:17:51.241Z,99686.19
2022-08-22T09:20:42.403Z,99692.22
2022-08-22T09:23:22.021Z,99678.88
2022-08-22T09:25:57.366Z,99681.25
2022-08-22T09:28:37.417Z,99686.16
2022-08-22T09:31:51.822Z,99684.25
2022-08-22T09:34:38.990Z,99675.59
2022-08-22T09:37:41.495Z,99674.47
2022-08-22T09:40:35.948Z,99681.19
2022-08-22T09:43:09.207Z,99675.00
2022-08-22T09:45:53.941Z,99676.81
2022-08-22T09:49:05.635Z,99660.06
2022-08-22T09:52:14.565Z,99663.69
2022-08-22T09:55:02.574Z,99658.03
2022-08-22T09:58:02.961Z,99662.38
2022-08-22T10:00:54.471Z,99665.91
2022-08-22T10:03:45.170Z,99669.06
2022-08-22T10:06:27.619Z,99662.50
2022-08-22T10:09:18.759Z,99661.00
2022-08-22T10:11:58.177Z,99656.88
2022-08-22T10:14:38.395Z,99656.59
2022-08-22T10:17:28.314Z,99650.91
2022-08-22T10:20:09.089Z,99638.19
2022-08-22T10:23:02.296Z,99640.25
2022-08-22T10:25:42.289Z,99633.78
2022-08-22T10:28:24.108Z,99636.13
2022-08-22T10:30:58.461Z,99636.88
2022-08-22T10:33:37.446Z,99637.00
2022-08-22T10:36:31.228Z,99635.63
2022-08-22T10:39:02.075Z,99634.91
2022-08-22T10:42:27.906Z,99629.81
2022-08-22T10:45:23.593Z,99630.06
2022-08-22T10:48:05.040Z,99617.66
2022-08-22T10:50:55.787Z,99620.56
2022-08-22T10:53:51.439Z,99620.03
2022-08-22T10:56:49.459Z,99613.56
2022-08-22T10:59:39.282Z,99619.78
2022-08-22T11:02:25.048Z,99613.03
2022-08-22T11:05:19.322Z,99618.25
2022-08-22T11:08:14.342Z,99613.25
2022-08-22T11:11:09.063Z,99617.13
2022-08-22T11:13:57.121Z,99612.75
2022-08-22T11:16:41.966Z,99612.75
2022-08-22T11:19:55.572Z,99608.03
2022-08-22T11:22:47.579Z,99604.19
2022-08-22T11:25:41.340Z,99604.06
2022-08-22T11:28:38.082Z,99604.69
2022-08-22T11:31:52.172Z,99601.97
2022-08-22T11:34:55.732Z,99612.25
2022-08-22T11:37:54.877Z,99599.00
2022-08-22T11:40:35.341Z,99601.38
2022-08-22T11:43:38.089Z,99595.44
2022-08-22T11:46:23.880Z,99597.84
2022-08-22T11:49:37.243Z,99597.47
2022-08-22T11:52:53.363Z,99585.63
2022-08-22T11:55:33.238Z,99588.44
2022-08-22T11:58:46.226Z,99586.19
2022-08-22T12:01:37.362Z,99588.03
2022-08-22T12:04:36.117Z,99583.94
2022-08-22T12:07:26.749Z,99571.22
2022-08-22T12:10:19.947Z,99582.03
2022-08-22T12:13:01.343Z,99577.78
2022-08-22T12:15:59.727Z,99577.13
2022-08-22T12:19:22.915Z,99573.44
2022-08-22T12:22:44.437Z,99573.72
2022-08-22T12:25:47.811Z,99575.22
2022-08-22T12:28:39.990Z,99571.00
2022-08-22T12:31:41.497Z,99567.38
2022-08-22T12:35:00.678Z,99565.81
2022-08-22T12:37:59.459Z,99557.19
2022-08-22T12:40:53.745Z,99553.06
2022-08-22T12:44:00.384Z,99555.69
2022-08-22T12:47:04.288Z,99558.94
2022-08-22T12:50:05.788Z,99556.75
2022-08-22T12:53:02.299Z,99534.91
2022-08-22T12:55:50.071Z,99538.63
2022-08-22T12:59:02.299Z,99530.16
2022-08-22T13:01:43.580Z,99529.47
2022-08-22T13:04:32.582Z,99535.72
2022-08-22T13:07:22.724Z,99522.66
2022-08-22T13:10:14.809Z,99521.00
2022-08-22T13:12:50.028Z,99534.56
2022-08-22T13:15:34.260Z,99524.75
2022-08-22T13:18:28.864Z,99529.00
2022-08-22T13:21:00.972Z,99519.72
2022-08-22T13:23:41.977Z,99520.81
2022-08-22T13:26:33.693Z,99513.00
2022-08-22T13:29:26.558Z,99525.53
2022-08-22T13:32:03.656Z,99518.28
2022-08-22T13:34:47.912Z,99516.38
2022-08-22T13:37:29.358Z,99510.75
2022-08-22T13:40:04.071Z,99507.84
2022-08-22T13:42:40.175Z,99499.88
2022-08-22T13:45:18.333Z,99502.25
2022-08-22T13:48:03.551Z,99503.84
2022-08-22T13:50:37.467Z,99493.91
2022-08-22T13:53:51.187Z,99500.28
2022-08-22T13:56:53.494Z,99494.50
2022-08-22T14:00:01.569Z,99485.72
2022-08-22T14:03:08.104Z,99494.84
2022-08-22T14:05:54.895Z,99496.56
2022-08-22T14:08:45.877Z,99497.28
2022-08-22T14:11:40.228Z,99494.81
2022-08-22T14:14:08.336Z,99491.63
2022-08-22T14:16:50.768Z,99490.69
2022-08-22T14:19:52.717Z,99489.00
2022-08-22T14:22:35.080Z,99489.16
2022-08-22T14:25:25.928Z,99478.69
2022-08-22T14:28:06.485Z,99482.91
2022-08-22T14:31:07.227Z,99472.28
2022-08-22T14:33:50.339Z,99475.69
2022-08-22T14:36:25.223Z,99476.09
2022-08-22T14:39:01.063Z,99477.34
2022-08-22T14:41:55.632Z,99474.09
2022-08-22T14:44:42.268Z,99462.00
2022-08-22T14:48:14.185Z,99463.47
2022-08-22T14:50:56.454Z,99455.91
2022-08-22T14:53:31.753Z,99460.84
2022-08-22T14:56:11.340Z,99446.25
2022-08-22T14:59:03.459Z,99447.88
2022-08-22T15:01:51.312Z,99453.13
2022-08-22T15:04:30.218Z,99459.66
2022-08-22T15:06:59.537Z,99452.63
2022-08-22T15:09:57.285Z,99452.88
2022-08-22T15:12:33.990Z,99448.75
2022-08-22T15:15:27.106Z,99446.75
2022-08-22T15:17:54.707Z,99445.41
2022-08-22T15:20:28.563Z,99448.75
2022-08-22T15:23:10.162Z,99448.34
2022-08-22T15:25:42.135Z,99450.31
2022-08-22T15:28:20.100Z,99457.16
2022-08-22T15:31:03.759Z,99452.06
2022-08-22T15:33:45.439Z,99446.94
2022-08-22T15:36:24.816Z,99453.28
2022-08-22T15:39:27.148Z,99452.31
2022-08-22T15:41:55.538Z,99448.56
2022-08-22T15:44:32.147Z,99454.34
2022-08-22T15:47:10.734Z,99450.59
2022-08-22T15:49:54.560Z,99460.28
2022-08-22T15:52:31.865Z,99454.88
2022-08-22T15:55:23.194Z,99459.06
2022-08-22T15:58:20.139Z,99451.06
2022-08-22T16:01:19.712Z,99448.91
2022-08-22T16:04:08.290Z,99458.81
2022-08-22T16:06:55.091Z,99450.84
2022-08-22T16:09:47.614Z,99445.09
2022-08-22T16:12:45.797Z,99448.16
2022-08-22T16:15:54.408Z,99443.88
2022-08-22T16:18:43.702Z,99448.72
2022-08-22T16:21:22.977Z,99442.66
2022-08-22T16:23:58.491Z,99440.72
2022-08-22T16:26:30.907Z,99450.78
2022-08-22T16:29:04.359Z,99444.03
2022-08-22T16:32:01.404Z,99435.75
2022-08-22T16:34:37.134Z,99437.56
2022-08-22T16:37:03.921Z,99436.56
2022-08-22T16:39:52.494Z,99437.84
2022-08-22T16:42:22.481Z,99438.50
2022-08-22T16:45:14.761Z,99434.38
2022-08-22T16:47:58.452Z,99437.28
2022-08-22T16:50:38.372Z,99435.75
2022-08-22T16:53:22.238Z,99430.22
2022-08-22T16:56:02.423Z,99430.75
2022-08-22T16:59:14.167Z,99431.97
2022-08-22T17:02:06.021Z,99422.63
2022-08-22T17:05:28.870Z,99425.19
2022-08-22T17:08:25.662Z,99417.59
2022-08-22T17:11:23.915Z,99421.84
2022-08-22T17:14:37.852Z,99423.31
2022-08-22T17:17:51.661Z,99420.63
2022-08-22T17:20:37.002Z,99424.31
2022-08-22T17:23:36.667Z,99414.03
2022-08-22T17:26:24.996Z,99424.69
2022-08-22T17:29:34.174Z,99427.66
2022-08-22T17:32:16.647Z,99423.06
2022-08-22T17:35:21.527Z,99423.50
2022-08-22T17:38:09.420Z,99420.28
2022-08-22T17:41:08.704Z,99432.47
2022-08-22T17:44:27.260Z,99431.56
2022-08-22T17:47:01.525Z,99436.31
2022-08-22T17:49:45.181Z,99436.69
2022-08-22T17:52:33.838Z,99428.53
2022-08-22T17:55:27.266Z,99433.56
2022-08-22T17:58:11.501Z,99438.06
2022-08-22T18:00:54.349Z,99437.81
2022-08-22T18:03:33.426Z,99435.81
2022-08-22T18:06:28.880Z,99436.44
2022-08-22T18:09:16.614Z,99444.50
2022-08-22T18:11:52.583Z,99449.50
2022-08-22T18:14:49.070Z,99451.88
2022-08-22T18:17:29.713Z,99452.72
2022-08-22T18:20:45.405Z,99440.97
2022-08-22T18:23:41.318Z,99447.03
2022-08-22T18:26:42.006Z,99447.94
2022-08-22T18:29:19.907Z,99451.03
2022-08-22T18:32:11.121Z,99448.28
2022-08-22T18:35:15.959Z,99453.50
2022-08-22T18:37:57.833Z,99456.78
2022-08-22T18:40:33.362Z,99462.56
2022-08-22T18:43:17.877Z,99461.38
2022-08-22T18:45:47.837Z,99469.25
2022-08-22T18:48:59.263Z,99473.00
2022-08-22T18:51:38.678Z,99467.84
2022-08-22T18:54:06.816Z,99471.22
2022-08-22T18:56:40.461Z,99470.09
2022-08-22T18:59:31.451Z,99475.38
2022-08-22T19:02:22.970Z,99473.63
2022-08-22T19:05:24.442Z,99475.44
2022-08-22T19:08:00.151Z,99477.66
2022-08-22T19:11:23.379Z,99481.16
2022-08-22T19:14:28.004Z,99489.00
2022-08-22T19:17:32.946Z,99488.81
2022-08-22T19:20:38.819Z,99491.28
2022-08-22T19:23:37.325Z,99495.66
2022-08-22T19:26:29.333Z,99499.78
2022-08-22T19:29:16.086Z,99491.91
2022-08-22T19:31:46.023Z,99504.75
2022-08-22T19:34:32.583Z,99506.19
2022-08-22T19:37:32.410Z,99513.00
2022-08-22T19:40:09.451Z,99513.59
2022-08-22T19:42:44.070Z,99516.66
2022-08-22T19:45:30.655Z,99526.59
2022-08-22T19:48:13.949Z,99511.53
2022-08-22T19:50:43.050Z,99525.50
2022-08-22T19:53:58.060Z,99524.25
2022-08-22T19:57:01.102Z,99529.28
2022-08-22T20:00:09.819Z,99528.00
2022-08-22T20:03:03.201Z,99525.81
2022-08-22T20:06:33.727Z,99528.50
2022-08-22T20:09:32.122Z,99519.69
2022-08-22T20:12:19.235Z,99525.25
2022-08-22T20:14:49.865Z,99533.22
2022-08-22T20:17:27.705Z,99525.81
2022-08-22T20:20:17.557Z,99530.63
2022-08-22T20:22:59.493Z,99522.56
2022-08-22T20:25:43.005Z,99527.28
2022-08-22T20:28:50.996Z,99525.47
2022-08-22T20:31:27.409Z,99517.88
2022-08-22T20:34:13.388Z,99519.94
2022-08-22T20:36:46.212Z,99528.72
2022-08-22T20:39:24.522Z,99522.81
2022-08-22T20:42:04.918Z,99522.06
2022-08-22T20:44:53.529Z,99522.94
2022-08-22T20:47:27.058Z,99524.75
2022-08-22T20:50:12.067Z,99523.84
2022-08-22T20:52:54.224Z,99525.50
2022-08-22T20:55:31.909Z,99519.41
2022-08-22T20:58:17.936Z,99522.94
2022-08-22T21:00:51.097Z,99521.25
2022-08-22T21:03:50.790Z,99522.47
2022-08-22T21:06:31.997Z,99520.69
2022-08-22T21:09:33.317Z,99520.78
2022-08-22T21:12:04.491Z,99520.22
2022-08-22T21:14:44.403Z,99507.53
2022-08-22T21:17:35.485Z,99516.31
2022-08-22T21:20:22.281Z,99521.03
2022-08-22T21:22:51.520Z,99527.97
2022-08-22T21:25:20.683Z,99528.88
2022-08-22T21:27:49.798Z,99526.38
2022-08-22T21:30:25.765Z,99533.47
2022-08-22T21:32:56.206Z,99525.72
2022-08-22T21:35:33.601Z,99522.22
2022-08-22T21:38:02.209Z,99515.56
2022-08-22T21:40:37.569Z,99523.13
2022-08-22T21:43:12.956Z,99529.88
2022-08-22T21:45:39.711Z,99532.56
2022-08-22T21:48:35.119Z,99525.16
2022-08-22T21:51:22.707Z,99532.28
2022-08-22T21:53:56.044Z,99527.16
2022-08-22T21:56:38.153Z,99533.19
2022-08-22T21:59:52.253Z,99527.44
2022-08-22T22:02:41.914Z,99531.03
2022-08-22T22:05:18.270Z,99519.22
2022-08-22T22:07:47.460Z,99526.97
2022-08-22T22:10:18.322Z,99525.28
2022-08-22T22:12:48.122Z,99524.53
2022-08-22T22:15:21.985Z,99525.59
2022-08-22T22:17:49.109Z,99527.53
2022-08-22T22:20:20.764Z,99526.88
2022-08-22T22:22:48.016Z,99519.47
2022-08-22T22:25:39.855Z,99520.47
2022-08-22T22:28:13.535Z,99535.41
2022-08-22T22:30:42.572Z,99526.97
2022-08-22T22:33:10.169Z,99521.50
2022-08-22T22:35:40.211Z,99528.44
2022-08-22T22:38:08.653Z,99532.16
2022-08-22T22:40:36.003Z,99528.00
2022-08-22T22:43:03.945Z,99527.41
2022-08-22T22:45:31.160Z,99527.59
2022-08-22T22:47:58.436Z,99528.69
2022-08-22T22:50:26.157Z,99530.41
2022-08-22T22:52:54.138Z,99534.94
2022-08-22T22:55:24.230Z,99524.13
2022-08-22T22:57:59.306Z,99529.47
2022-08-22T23:00:30.767Z,99529.66
2022-08-22T23:03:03.677Z,99520.47
2022-08-22T23:05:32.099Z,99519.88
2022-08-22T23:08:00.433Z,99519.06
2022-08-22T23:10:30.798Z,99518.47
2022-08-22T23:12:59.357Z,99516.16
2022-08-22T23:15:26.952Z,99524.81
2022-08-22T23:17:54.462Z,99524.28
2022-08-22T23:20:21.835Z,99523.63
2022-08-22T23:22:49.629Z,99518.69
2022-08-22T23:25:16.681Z,99521.44
2022-08-22T23:27:43.897Z,99529.34
2022-08-22T23:30:15.524Z,99534.59
2022-08-22T23:32:44.767Z,99534.81
2022-08-22T23:35:11.718Z,99528.31
2022-08-22T23:37:38.892Z,99517.44
2022-08-22T23:40:10.460Z,99515.81
2022-08-22T23:42:37.510Z,99521.25
2022-08-22T23:45:05.829Z,99518.16
2022-08-22T23:47:32.962Z,99519.13
2022-08-22T23:50:02.968Z,99518.44
2022-08-22T23:52:33.256Z,99517.03
2022-08-22T23:55:00.211Z,99529.91
2022-08-22T23:57:27.611Z,99532.72
2022-08-22T23:59:57.820Z,99525.22
